Time;durP1;ratioP1;P1;durP2;ratioP2;P2;SDS_P1;SDS_P2;PMS_P1;PMS_P2;Temp;Humidity;BMP_temperature;BMP_pressure;BME280_temperature;BME280_humidity;BME280_pressure;Samples;Min_cycle;Max_cycle;Signal;HPM_P1;HPM_P2
2022/08/23 00:01:28;;;;;;;7.32;2.78;;;24.20;59.90;;;;;;5006063;28;20498;-74
2022/08/23 00:03:56;;;;;;;7.47;3.10;;;24.20;59.60;;;;;;5010680;28;20033;-74
2022/08/23 00:06:22;;;;;;;5.40;2.50;;;24.20;59.60;;;;;;5009563;28;20026;-74
2022/08/23 00:08:50;;;;;;;6.45;2.35;;;24.20;59.60;;;;;;5009600;28;20387;-73
2022/08/23 00:11:25;;;;;;;5.95;2.50;;;24.10;59.40;;;;;;5009983;28;20353;-73
2022/08/23 00:13:50;;;;;;;4.38;2.22;;;24.20;59.60;;;;;;5010367;28;20038;-73
2022/08/23 00:16:16;;;;;;;5.47;2.08;;;24.20;59.50;;;;;;5008566;28;20080;-74
2022/08/23 00:18:43;;;;;;;6.95;2.67;;;24.20;59.60;;;;;;5010365;28;20025;-73
2022/08/23 00:21:10;;;;;;;5.05;2.22;;;24.20;59.60;;;;;;5010339;28;20018;-73
2022/08/23 00:23:35;;;;;;;6.75;2.70;;;24.20;59.60;;;;;;4993321;28;20100;-73
2022/08/23 00:26:02;;;;;;;6.80;2.30;;;24.20;59.50;;;;;;5009399;28;20026;-75
2022/08/23 00:28:28;;;;;;;5.53;2.20;;;24.20;59.60;;;;;;5009810;28;20030;-74
2022/08/23 00:30:55;;;;;;;4.60;2.05;;;24.20;59.60;;;;;;5016689;28;20045;-75
2022/08/23 00:33:21;;;;;;;7.22;2.60;;;24.20;59.50;;;;;;5008958;28;20077;-73
2022/08/23 00:35:47;;;;;;;5.72;2.17;;;24.20;59.50;;;;;;5008957;28;20037;-75
2022/08/23 00:38:12;;;;;;;6.03;1.85;;;24.20;59.50;;;;;;5043808;22;20431;-78
2022/08/23 00:40:38;;;;;;;8.00;2.47;;;24.20;59.60;;;;;;5030836;28;20366;-78
2022/08/23 00:48:37;;;;;;;7.60;2.30;;;24.20;59.60;;;;;;5012916;28;20030;-79
2022/08/23 00:51:15;;;;;;;5.53;2.30;;;24.20;59.60;;;;;;4998176;28;20048;-79
2022/08/23 00:53:47;;;;;;;6.10;2.60;;;24.20;59.60;;;;;;5014598;28;20437;-79
2022/08/23 00:56:16;;;;;;;9.00;2.30;;;24.20;59.50;;;;;;5031273;28;20504;-78
2022/08/23 00:58:42;;;;;;;14.13;2.67;;;24.20;60.00;;;;;;4998470;28;20038;-82
2022/08/23 01:01:08;;;;;;;23.85;17.25;;;24.20;60.10;;;;;;4999127;28;20029;-76
2022/08/23 01:03:38;;;;;;;45.25;29.08;;;24.10;60.40;;;;;;5014404;28;20366;-77
2022/08/23 01:06:19;;;;;;;21.92;13.45;;;24.10;60.70;;;;;;4997647;28;20044;-77
2022/08/23 01:08:50;;;;;;;23.25;14.25;;;24.10;60.50;;;;;;5014585;28;20041;-77
2022/08/23 01:11:35;;;;;;;23.35;14.15;;;24.00;60.50;;;;;;5014885;28;20197;-77
2022/08/23 01:14:12;;;;;;;22.05;13.23;;;24.10;61.00;;;;;;5014144;28;20152;-77
2022/08/23 01:17:08;;;;;;;23.10;12.55;;;24.10;60.60;;;;;;5030022;28;20087;-76
2022/08/23 01:19:38;;;;;;;21.67;10.27;;;24.00;60.50;;;;;;5031118;28;20398;-77
2022/08/23 01:22:18;;;;;;;16.50;9.23;;;24.10;60.40;;;;;;5032268;28;20163;-77
2022/08/23 01:24:45;;;;;;;13.35;7.88;;;24.10;60.30;;;;;;5014462;28;20070;-79
2022/08/23 01:27:12;;;;;;;11.07;5.60;;;24.00;60.20;;;;;;4997229;28;20075;-79
2022/08/23 01:29:39;;;;;;;10.57;5.00;;;24.00;60.10;;;;;;4998708;28;20037;-78
2022/08/23 01:32:07;;;;;;;14.40;5.60;;;24.00;60.00;;;;;;5014788;28;20107;-78
2022/08/23 01:34:35;;;;;;;10.00;4.47;;;24.00;60.00;;;;;;4997750;28;20124;-78
2022/08/23 01:37:05;;;;;;;14.32;4.30;;;24.00;59.70;;;;;;4996969;28;20136;-79
2022/08/23 01:39:32;;;;;;;10.35;4.30;;;24.00;59.90;;;;;;5014427;28;20018;-79
2022/08/23 01:41:58;;;;;;;8.70;3.47;;;23.90;59.70;;;;;;5014343;28;20021;-79
2022/08/23 01:44:24;;;;;;;8.40;3.75;;;23.90;59.70;;;;;;5014234;28;20093;-79
2022/08/23 01:46:50;;;;;;;9.15;3.35;;;23.90;59.70;;;;;;4981049;28;20127;-78
2022/08/23 01:49:16;;;;;;;8.80;3.10;;;24.00;59.60;;;;;;4998008;28;20505;-79
2022/08/23 01:51:42;;;;;;;7.38;2.78;;;23.90;59.40;;;;;;4997589;28;20036;-79
2022/08/23 01:54:09;;;;;;;8.35;2.78;;;23.90;59.40;;;;;;4998368;28;20029;-79
2022/08/23 01:56:37;;;;;;;6.78;3.00;;;23.90;59.40;;;;;;4998290;28;20437;-79
2022/08/23 01:59:03;;;;;;;6.43;2.67;;;23.90;59.40;;;;;;5001640;28;20438;-79
2022/08/23 02:01:33;;;;;;;7.07;2.85;;;23.90;59.10;;;;;;5017851;28;20018;-79
2022/08/23 02:04:00;;;;;;;6.80;2.60;;;23.90;59.40;;;;;;5017369;28;20037;-79
2022/08/23 02:06:26;;;;;;;5.10;2.40;;;23.90;59.30;;;;;;5016563;28;20029;-79
2022/08/23 02:09:02;;;;;;;7.60;2.67;;;23.90;59.30;;;;;;5017406;28;20075;-79
2022/08/23 02:11:36;;;;;;;7.70;2.88;;;23.90;59.30;;;;;;5017304;28;20040;-79
2022/08/23 02:14:08;;;;;;;8.88;2.40;;;23.90;59.20;;;;;;5017614;28;20670;-78
2022/08/23 02:16:47;;;;;;;6.15;2.38;;;23.90;59.20;;;;;;5016537;28;20032;-79
2022/08/23 02:19:14;;;;;;;5.38;2.10;;;23.90;59.20;;;;;;5001514;28;20040;-79
2022/08/23 02:21:41;;;;;;;6.55;2.53;;;23.90;59.10;;;;;;5017582;28;20029;-79
2022/08/23 02:24:21;;;;;;;8.50;2.47;;;23.90;59.00;;;;;;5001232;28;20124;-77
2022/08/23 02:26:54;;;;;;;4.93;2.30;;;23.90;58.90;;;;;;5016616;28;20071;-77
2022/08/23 02:29:22;;;;;;;8.63;2.25;;;23.90;58.80;;;;;;5017030;28;20037;-76
2022/08/23 02:31:49;;;;;;;7.50;2.40;;;23.80;58.70;;;;;;5001205;28;20465;-76
2022/08/23 02:34:16;;;;;;;7.25;2.58;;;23.80;58.70;;;;;;5000836;28;20359;-76
2022/08/23 02:36:43;;;;;;;9.32;2.17;;;23.80;58.60;;;;;;5015722;28;20082;-76
2022/08/23 02:39:10;;;;;;;9.60;2.60;;;23.90;58.80;;;;;;5016694;28;20049;-76
2022/08/23 02:41:37;;;;;;;6.55;1.92;;;23.80;58.80;;;;;;5000420;28;20032;-77
2022/08/23 02:44:06;;;;;;;5.63;2.30;;;23.80;58.60;;;;;;5000860;28;20026;-77
2022/08/23 02:46:34;;;;;;;6.95;2.28;;;23.80;58.60;;;;;;5015990;28;20022;-77
2022/08/23 02:48:59;;;;;;;6.85;2.22;;;23.80;58.60;;;;;;5000416;28;20032;-76
2022/08/23 02:51:25;;;;;;;5.45;2.30;;;23.80;58.70;;;;;;5016754;28;20092;-76
2022/08/23 02:53:52;;;;;;;5.50;2.30;;;23.80;58.70;;;;;;5016584;28;20480;-76
2022/08/23 02:56:20;;;;;;;8.70;2.75;;;23.80;58.80;;;;;;5015407;28;20029;-76
2022/08/23 02:58:46;;;;;;;5.72;2.50;;;23.80;58.80;;;;;;5016409;28;20474;-76
2022/08/23 03:01:23;;;;;;;7.40;2.10;;;23.80;58.90;;;;;;5016586;28;20025;-76
2022/08/23 03:03:51;;;;;;;5.05;2.10;;;23.80;58.90;;;;;;5016207;28;20037;-77
2022/08/23 03:06:18;;;;;;;7.22;2.35;;;23.80;59.00;;;;;;5015423;28;20108;-76
2022/08/23 03:08:44;;;;;;;6.13;2.13;;;23.80;59.00;;;;;;5015012;28;20064;-76
2022/08/23 03:11:15;;;;;;;4.88;2.33;;;23.80;59.10;;;;;;5016278;28;20056;-76
2022/08/23 03:13:47;;;;;;;5.82;2.30;;;23.80;59.10;;;;;;5016101;28;20033;-76
2022/08/23 03:16:13;;;;;;;9.27;2.63;;;23.80;59.10;;;;;;5015290;28;20032;-76
2022/08/23 03:18:45;;;;;;;7.35;2.70;;;23.80;59.10;;;;;;5032457;28;20040;-76
2022/08/23 03:21:11;;;;;;;9.77;2.85;;;23.80;59.20;;;;;;5016185;28;20033;-76
2022/08/23 03:23:38;;;;;;;9.13;2.83;;;23.80;59.20;;;;;;5032546;28;20434;-76
2022/08/23 03:26:07;;;;;;;6.90;2.80;;;23.80;59.30;;;;;;5015465;28;20033;-76
2022/08/23 03:28:36;;;;;;;6.30;2.42;;;23.80;59.30;;;;;;5016340;28;20120;-76
2022/08/23 03:31:04;;;;;;;7.47;2.63;;;23.80;59.30;;;;;;5016481;28;20038;-76
2022/08/23 03:33:34;;;;;;;6.30;2.42;;;23.80;59.30;;;;;;5017400;28;20037;-76
2022/08/23 03:36:03;;;;;;;10.73;2.97;;;23.80;59.30;;;;;;4999560;28;20036;-76
2022/08/23 03:38:29;;;;;;;7.03;2.97;;;23.80;59.30;;;;;;5031978;28;20034;-76
2022/08/23 03:40:56;;;;;;;6.90;2.63;;;23.80;59.40;;;;;;4999418;28;20029;-76
2022/08/23 03:43:23;;;;;;;5.65;2.22;;;23.80;59.50;;;;;;4999753;28;20063;-76
2022/08/23 03:45:49;;;;;;;8.25;2.80;;;23.80;59.50;;;;;;5015476;28;20121;-76
2022/08/23 03:48:16;;;;;;;9.40;2.90;;;23.80;59.50;;;;;;5015822;28;20025;-76
2022/08/23 03:50:42;;;;;;;9.18;2.70;;;23.80;59.60;;;;;;5033597;28;20076;-76
2022/08/23 03:53:08;;;;;;;9.55;2.97;;;23.80;59.70;;;;;;5015962;28;20100;-76
2022/08/23 03:55:34;;;;;;;8.57;2.78;;;23.80;59.70;;;;;;4998373;28;20040;-76
2022/08/23 03:58:01;;;;;;;6.13;2.75;;;23.80;59.70;;;;;;5015707;28;20029;-76
2022/08/23 04:00:27;;;;;;;10.93;3.65;;;23.80;59.80;;;;;;5016127;28;20025;-76
2022/08/23 04:02:54;;;;;;;7.55;2.90;;;23.80;59.80;;;;;;5016899;28;20032;-77
2022/08/23 04:05:22;;;;;;;7.32;2.55;;;23.80;60.00;;;;;;4984585;28;20041;-76
2022/08/23 04:07:56;;;;;;;7.22;2.95;;;23.70;60.00;;;;;;5015819;28;20037;-76
2022/08/23 04:10:24;;;;;;;5.97;2.60;;;23.70;60.00;;;;;;5033106;28;20030;-76
2022/08/23 04:12:53;;;;;;;7.23;3.50;;;23.80;60.10;;;;;;5032808;28;20096;-76
2022/08/23 04:15:19;;;;;;;9.07;3.13;;;23.80;60.10;;;;;;4999065;28;20384;-76
2022/08/23 04:17:47;;;;;;;13.10;2.90;;;23.70;60.10;;;;;;4999762;28;20030;-76
2022/08/23 04:20:13;;;;;;;10.07;3.47;;;23.70;60.20;;;;;;5015661;28;20036;-76
2022/08/23 04:22:53;;;;;;;8.35;3.20;;;23.70;60.30;;;;;;5015284;28;20032;-77
2022/08/23 04:25:20;;;;;;;7.95;3.00;;;23.70;60.30;;;;;;4998485;28;20043;-77
2022/08/23 04:27:47;;;;;;;8.90;3.28;;;23.70;60.40;;;;;;5014911;28;20033;-76
2022/08/23 04:30:15;;;;;;;5.88;2.90;;;23.70;60.50;;;;;;5015367;28;20499;-77
2022/08/23 04:32:41;;;;;;;6.68;2.97;;;23.70;60.60;;;;;;5015075;28;20478;-76
2022/08/23 04:35:08;;;;;;;7.60;3.33;;;23.70;60.60;;;;;;5014166;28;20378;-77
2022/08/23 04:37:34;;;;;;;8.32;2.70;;;23.70;60.50;;;;;;5014477;28;20037;-77
2022/08/23 04:42:47;;;;;;;10.48;3.20;;;23.70;60.60;;;;;;5000904;28;20049;-77
2022/08/23 04:45:13;;;;;;;7.53;2.97;;;23.70;60.60;;;;;;5014159;28;20029;-76
2022/08/23 04:47:44;;;;;;;7.72;3.05;;;23.70;60.60;;;;;;5014721;28;20029;-77
2022/08/23 04:50:10;;;;;;;9.68;3.45;;;23.70;60.80;;;;;;5014957;28;20038;-77
2022/08/23 04:52:51;;;;;;;9.68;3.20;;;23.70;60.70;;;;;;5032007;28;20036;-78
2022/08/23 04:55:17;;;;;;;9.07;3.38;;;23.60;60.80;;;;;;5013986;28;20038;-79
2022/08/23 04:57:47;;;;;;;;;;;23.70;60.80;;;;;;5014927;28;20022;-78
2022/08/23 05:00:17;;;;;;;10.65;3.40;;;23.60;60.90;;;;;;5014596;28;19913;-78
2022/08/23 05:02:54;;;;;;;8.02;2.92;;;23.70;60.80;;;;;;4995257;28;20056;-78
2022/08/23 05:05:20;;;;;;;5.15;2.65;;;23.70;60.80;;;;;;5009054;28;20480;-76
2022/08/23 05:07:46;;;;;;;9.95;3.10;;;23.70;60.80;;;;;;5013285;28;20029;-76
2022/08/23 05:10:14;;;;;;;8.32;2.95;;;23.70;60.90;;;;;;4998003;28;20071;-76
2022/08/23 05:12:45;;;;;;;9.57;2.90;;;23.70;61.00;;;;;;4999640;28;20033;-76
2022/08/23 05:15:11;;;;;;;9.98;2.90;;;23.70;61.00;;;;;;5013496;28;20068;-75
2022/08/23 05:17:42;;;;;;;8.60;3.17;;;23.70;61.00;;;;;;5014675;28;20093;-76
2022/08/23 05:20:09;;;;;;;9.10;3.00;;;23.70;60.90;;;;;;4999196;28;20071;-76
2022/08/23 05:22:39;;;;;;;10.43;3.17;;;23.70;60.90;;;;;;4999147;28;20034;-75
2022/08/23 05:25:50;;;;;;;9.25;2.97;;;23.70;60.80;;;;;;5018722;28;20037;-76
2022/08/23 05:28:26;;;;;;;8.05;2.72;;;23.70;60.90;;;;;;5014018;28;20043;-76
2022/08/23 05:31:02;;;;;;;8.30;2.90;;;23.70;60.90;;;;;;5014445;28;20490;-76
2022/08/23 05:33:34;;;;;;;11.18;3.20;;;23.70;61.00;;;;;;5001750;28;20037;-76
2022/08/23 05:36:01;;;;;;;8.85;3.05;;;23.70;61.20;;;;;;5016820;28;20061;-76
2022/08/23 05:38:28;;;;;;;10.45;3.08;;;23.60;61.30;;;;;;5017400;28;20040;-76
2022/08/23 05:40:57;;;;;;;8.90;3.03;;;23.60;61.70;;;;;;5017636;28;20100;-75
2022/08/23 05:43:24;;;;;;;9.82;3.22;;;23.60;61.40;;;;;;5001729;28;20036;-75
2022/08/23 05:46:03;;;;;;;8.25;3.00;;;23.60;61.40;;;;;;5017077;28;20497;-75
2022/08/23 05:48:32;;;;;;;7.22;2.88;;;23.60;61.50;;;;;;5017295;28;20026;-75
2022/08/23 05:51:19;;;;;;;7.72;2.80;;;23.70;61.60;;;;;;5017335;28;20036;-75
2022/08/23 05:53:47;;;;;;;9.60;3.28;;;23.60;61.60;;;;;;5017561;28;20052;-76
2022/08/23 05:56:22;;;;;;;9.52;3.45;;;23.60;61.70;;;;;;5000185;28;20037;-76
2022/08/23 05:58:50;;;;;;;8.60;2.85;;;23.60;61.80;;;;;;5017428;28;20033;-76
2022/08/23 06:01:17;;;;;;;10.98;3.17;;;23.60;61.70;;;;;;5001308;28;20068;-75
2022/08/23 06:03:43;;;;;;;11.23;3.65;;;23.60;61.70;;;;;;5017388;28;20064;-76
2022/08/23 06:06:11;;;;;;;7.30;2.88;;;23.60;61.70;;;;;;5016891;28;20072;-76
2022/08/23 06:08:39;;;;;;;10.63;3.10;;;23.60;61.80;;;;;;5017065;28;20482;-76
2022/08/23 06:11:12;;;;;;;9.48;3.25;;;23.60;61.80;;;;;;5017360;28;20072;-76
2022/08/23 06:13:46;;;;;;;7.68;3.40;;;23.60;61.80;;;;;;5017105;28;20119;-76
2022/08/23 06:16:14;;;;;;;8.15;2.70;;;23.60;61.90;;;;;;5016193;28;20032;-75
2022/08/23 06:18:40;;;;;;;10.43;2.90;;;23.60;61.90;;;;;;5000393;28;20060;-76
2022/08/23 06:21:37;;;;;;;8.07;3.20;;;23.60;62.00;;;;;;5021057;28;20037;-75
2022/08/23 06:24:03;;;;;;;10.25;2.90;;;23.60;62.00;;;;;;5016792;28;20112;-75
2022/08/23 06:26:37;;;;;;;9.30;3.38;;;23.60;62.00;;;;;;5015807;28;20029;-75
2022/08/23 06:29:09;;;;;;;8.60;3.30;;;23.60;62.20;;;;;;5016959;28;20045;-75
2022/08/23 06:31:48;;;;;;;11.73;3.33;;;23.60;62.20;;;;;;5016823;28;20083;-75
2022/08/23 06:34:28;;;;;;;9.40;3.20;;;23.60;62.10;;;;;;5016508;28;20041;-76
2022/08/23 06:37:29;;;;;;;11.68;3.00;;;23.60;62.10;;;;;;5024211;22;20315;-74
2022/08/23 06:40:05;;;;;;;11.48;3.05;;;23.70;62.10;;;;;;5075733;28;20027;-74
2022/08/23 06:42:53;;;;;;;8.93;3.00;;;23.60;62.10;;;;;;5090793;28;20028;-73
2022/08/23 06:45:24;;;;;;;8.95;3.47;;;23.70;62.20;;;;;;5075494;28;20051;-74
2022/08/23 06:47:54;;;;;;;12.10;3.33;;;23.60;62.30;;;;;;5092894;28;20028;-74
2022/08/23 06:50:21;;;;;;;14.32;3.42;;;23.60;62.40;;;;;;5094159;28;20032;-74
2022/08/23 06:53:07;;;;;;;14.50;3.85;;;23.60;62.50;;;;;;5072327;28;20088;-74
2022/08/23 06:55:53;;;;;;;12.82;3.10;;;23.60;62.60;;;;;;5071464;28;20076;-74
2022/08/23 06:58:45;;;;;;;13.30;3.15;;;23.60;62.70;;;;;;5091597;28;20123;-74
2022/08/23 07:01:47;;;;;;;10.55;3.33;;;23.50;62.80;;;;;;5092689;28;20540;-73
2022/08/23 07:04:43;;;;;;;11.30;3.17;;;23.50;63.00;;;;;;5082271;28;20048;-74
2022/08/23 07:07:35;;;;;;;13.90;3.13;;;23.50;63.30;;;;;;5091451;28;20222;-73
2022/08/23 07:10:04;;;;;;;9.77;3.00;;;23.50;63.50;;;;;;5092409;28;20039;-71
2022/08/23 07:12:31;;;;;;;11.38;3.45;;;23.50;63.90;;;;;;5092526;28;20089;-71
2022/08/23 07:14:56;;;;;;;10.68;3.08;;;23.60;63.80;;;;;;5075365;28;20024;-73
2022/08/23 07:17:22;;;;;;;15.98;3.42;;;23.60;63.90;;;;;;5091477;28;20067;-74
2022/08/23 07:19:49;;;;;;;12.35;4.63;;;23.60;64.00;;;;;;5090344;28;20051;-72
2022/08/23 07:22:15;;;;;;;17.75;3.80;;;23.60;65.20;;;;;;5058887;28;20059;-72
2022/08/23 07:24:41;;;;;;;17.52;4.18;;;23.60;64.90;;;;;;5073326;28;20035;-71
2022/08/23 07:27:08;;;;;;;60.47;19.70;;;23.60;64.70;;;;;;5074564;28;20106;-72
2022/08/23 07:29:44;;;;;;;19.42;5.28;;;23.70;69.70;;;;;;5058836;28;20035;-72
2022/08/23 07:32:11;;;;;;;16.20;5.00;;;23.60;65.80;;;;;;5075214;28;20039;-72
2022/08/23 07:34:37;;;;;;;18.98;8.55;;;23.60;65.50;;;;;;5075046;28;20039;-72
2022/08/23 07:37:04;;;;;;;27.33;16.45;;;23.60;65.40;;;;;;5084129;28;20028;-72
2022/08/23 07:39:30;;;;;;;32.28;20.48;;;23.50;65.10;;;;;;5089612;28;20374;-72
2022/08/23 07:42:03;;;;;;;22.17;11.77;;;23.50;65.20;;;;;;5075280;28;20020;-71
2022/08/23 07:44:30;;;;;;;19.25;9.00;;;23.50;65.40;;;;;;5075021;28;20535;-72
2022/08/23 07:46:57;;;;;;;16.92;8.88;;;23.50;65.40;;;;;;5074008;28;20441;-72
2022/08/23 07:49:23;;;;;;;16.30;8.30;;;23.50;65.40;;;;;;5058117;28;20090;-71
2022/08/23 07:51:51;;;;;;;14.85;5.82;;;23.40;65.80;;;;;;5041615;28;20036;-71
2022/08/23 07:54:21;;;;;;;15.93;5.50;;;23.30;66.10;;;;;;5074190;28;20024;-72
2022/08/23 07:57:09;;;;;;;14.70;5.60;;;23.40;66.20;;;;;;5090322;28;20118;-72
2022/08/23 07:59:50;;;;;;;19.00;5.70;;;23.40;65.90;;;;;;5074879;28;20052;-72
2022/08/23 08:02:35;;;;;;;22.42;6.22;;;23.50;65.70;;;;;;5074884;28;20028;-73
2022/08/23 08:05:01;;;;;;;13.13;4.57;;;23.50;65.60;;;;;;5074244;28;20028;-71
2022/08/23 08:07:28;;;;;;;21.17;5.47;;;23.50;65.50;;;;;;5074172;28;20036;-72
2022/08/23 08:09:57;;;;;;;18.10;5.53;;;23.50;65.50;;;;;;5058405;28;20024;-72
2022/08/23 08:12:25;;;;;;;16.52;4.75;;;23.60;65.50;;;;;;5074377;28;20031;-72
2022/08/23 08:14:57;;;;;;;14.90;4.60;;;23.60;65.40;;;;;;5057643;28;20040;-72
2022/08/23 08:17:29;;;;;;;10.52;3.92;;;23.50;65.40;;;;;;5073514;28;20020;-71
2022/08/23 08:20:33;;;;;;;18.30;4.72;;;23.60;65.40;;;;;;5073728;28;20119;-71
2022/08/23 08:23:28;;;;;;;11.95;3.92;;;23.60;65.40;;;;;;5089394;28;20032;-71
2022/08/23 08:26:29;;;;;;;14.85;3.63;;;23.40;65.20;;;;;;5074496;28;20032;-72
2022/08/23 08:28:56;;;;;;;15.07;3.97;;;23.50;65.40;;;;;;5057648;28;20032;-72
2022/08/23 08:31:25;;;;;;;9.73;3.38;;;23.50;65.30;;;;;;5073980;28;20035;-72
2022/08/23 08:33:52;;;;;;;15.13;3.40;;;23.40;65.60;;;;;;5074202;28;20533;-72
2022/08/23 08:36:48;;;;;;;11.52;3.10;;;23.30;65.90;;;;;;5073317;28;20052;-71
2022/08/23 08:39:25;;;;;;;9.63;3.10;;;23.30;66.10;;;;;;5074055;28;20039;-73
2022/08/23 08:42:06;;;;;;;8.60;3.00;;;23.30;65.70;;;;;;5074039;28;20098;-73
2022/08/23 08:44:54;;;;;;;9.23;2.33;;;23.30;65.60;;;;;;5073239;28;20035;-73
2022/08/23 08:47:36;;;;;;;11.32;2.78;;;23.30;65.30;;;;;;5073337;28;20032;-72
2022/08/23 08:50:05;;;;;;;9.50;2.60;;;23.40;65.00;;;;;;5072862;28;20039;-73
2022/08/23 08:52:38;;;;;;;7.22;2.70;;;23.50;65.00;;;;;;5073893;28;20062;-73
2022/08/23 08:55:16;;;;;;;9.85;3.03;;;23.60;64.50;;;;;;5091075;28;20144;-73
2022/08/23 08:57:47;;;;;;;15.80;4.32;;;23.70;64.70;;;;;;5057137;28;20024;-73
2022/08/23 09:00:22;;;;;;;13.80;4.35;;;23.70;64.60;;;;;;5073864;28;20051;-73
2022/08/23 09:02:49;;;;;;;12.35;4.03;;;23.80;65.00;;;;;;5073694;28;20451;-73
2022/08/23 09:05:25;;;;;;;9.55;3.63;;;23.80;64.90;;;;;;5056147;28;20085;-73
2022/08/23 09:08:13;;;;;;;16.90;4.85;;;23.90;64.70;;;;;;5077394;28;20085;-73
2022/08/23 09:11:12;;;;;;;17.00;4.63;;;23.90;64.80;;;;;;5077951;28;20074;-72
2022/08/23 09:13:54;;;;;;;11.52;4.30;;;23.90;64.50;;;;;;5077871;28;20028;-72
2022/08/23 09:16:29;;;;;;;14.27;4.32;;;24.00;64.40;;;;;;5076936;28;20116;-72
2022/08/23 09:18:56;;;;;;;11.73;4.70;;;24.00;64.60;;;;;;5077780;28;20089;-72
2022/08/23 09:21:23;;;;;;;11.65;4.70;;;24.00;64.50;;;;;;5077591;28;20095;-71
2022/08/23 09:23:50;;;;;;;12.60;4.85;;;24.00;64.70;;;;;;5077689;28;20062;-70
2022/08/23 09:26:29;;;;;;;13.35;4.50;;;24.00;64.60;;;;;;5076862;28;20373;-73
2022/08/23 09:29:19;;;;;;;11.20;4.82;;;24.00;64.10;;;;;;5077514;28;20118;-73
2022/08/23 09:31:51;;;;;;;12.27;5.15;;;24.00;64.40;;;;;;5077334;28;20028;-73
2022/08/23 09:34:35;;;;;;;15.38;4.63;;;24.10;64.50;;;;;;5060885;28;20472;-73
2022/08/23 09:37:08;;;;;;;10.77;4.72;;;24.00;64.20;;;;;;5076501;28;20036;-72
2022/08/23 09:39:40;;;;;;;12.00;4.32;;;24.10;64.10;;;;;;5077500;28;20032;-71
2022/08/23 09:42:35;;;;;;;12.93;4.20;;;24.00;63.90;;;;;;5077136;28;20085;-71
2022/08/23 09:45:30;;;;;;;10.07;4.35;;;24.10;64.40;;;;;;5060474;28;20047;-72
2022/08/23 09:47:56;;;;;;;9.65;3.70;;;24.20;64.60;;;;;;5077101;28;20050;-71
2022/08/23 09:50:29;;;;;;;8.38;3.90;;;24.20;65.10;;;;;;5077253;28;20480;-72
2022/08/23 09:53:02;;;;;;;11.93;3.83;;;24.20;64.70;;;;;;5060484;28;20031;-72
2022/08/23 09:55:41;;;;;;;8.90;3.50;;;24.30;64.00;;;;;;5059581;28;20066;-72
2022/08/23 09:58:23;;;;;;;8.10;3.40;;;24.30;63.90;;;;;;5076961;28;20076;-72
2022/08/23 10:01:20;;;;;;;10.10;3.25;;;24.20;63.90;;;;;;5076895;28;20024;-72
2022/08/23 10:04:13;;;;;;;7.18;2.88;;;24.30;64.60;;;;;;5076965;28;20330;-72
2022/08/23 10:06:42;;;;;;;6.10;2.90;;;24.30;64.10;;;;;;5042989;28;20105;-72
2022/08/23 10:09:20;;;;;;;7.97;3.00;;;24.20;64.50;;;;;;5075849;28;20039;-72
2022/08/23 10:11:46;;;;;;;9.68;3.08;;;24.20;64.50;;;;;;5075769;28;20032;-72
2022/08/23 10:14:14;;;;;;;6.53;2.95;;;24.20;64.40;;;;;;5076368;28;20028;-72
2022/08/23 10:17:25;;;;;;;13.05;3.20;;;24.20;64.20;;;;;;5058620;28;20032;-72
2022/08/23 10:20:21;;;;;;;22.20;3.58;;;24.20;63.80;;;;;;5060423;28;20096;-72
2022/08/23 10:23:00;;;;;;;6.78;2.85;;;24.20;64.80;;;;;;5060170;28;20165;-72
2022/08/23 10:25:41;;;;;;;9.48;3.30;;;24.20;63.80;;;;;;5075688;28;20028;-73
2022/08/23 10:32:26;;;;;;;16.70;4.15;;;24.20;63.90;;;;;;5076286;28;20035;-72
2022/08/23 10:35:38;;;;;;;13.88;3.67;;;24.20;64.80;;;;;;4976278;28;20034;-72
2022/08/23 10:38:07;;;;;;;11.15;3.70;;;24.20;64.70;;;;;;4944768;28;20038;-72
2022/08/23 10:40:58;;;;;;;7.93;3.30;;;24.20;64.40;;;;;;5056573;28;20048;-72
2022/08/23 10:43:40;;;;;;;11.23;3.13;;;24.20;64.20;;;;;;5076142;28;20060;-72
2022/08/23 10:46:07;;;;;;;12.07;3.20;;;24.10;64.00;;;;;;5058814;28;20065;-72
2022/08/23 10:48:55;;;;;;;9.25;3.30;;;24.20;63.90;;;;;;5076023;28;20666;-73
2022/08/23 10:51:28;;;;;;;7.40;2.92;;;24.10;64.00;;;;;;5059774;28;20107;-72
2022/08/23 10:54:17;;;;;;;8.32;3.20;;;24.20;63.80;;;;;;5076121;28;20496;-72
2022/08/23 10:56:44;;;;;;;13.95;3.13;;;24.20;63.70;;;;;;5075177;28;20068;-73
2022/08/23 10:59:19;;;;;;;11.27;3.55;;;24.10;63.60;;;;;;5075779;28;20494;-73
2022/08/23 11:01:54;;;;;;;9.18;3.28;;;24.20;63.60;;;;;;5075883;28;20373;-72
2022/08/23 11:04:35;;;;;;;9.07;3.55;;;24.20;63.70;;;;;;5075756;28;20031;-72
2022/08/23 11:07:30;;;;;;;20.88;3.72;;;24.20;63.60;;;;;;5074803;28;20492;-72
2022/08/23 11:10:24;;;;;;;8.43;2.83;;;24.20;63.20;;;;;;5058617;28;20047;-73
2022/08/23 11:13:11;;;;;;;7.72;2.83;;;24.10;61.50;;;;;;5075544;28;20032;-73
2022/08/23 11:15:53;;;;;;;13.98;2.75;;;24.10;61.50;;;;;;5074357;28;20530;-73
2022/08/23 11:18:25;;;;;;;17.10;2.90;;;24.10;61.90;;;;;;5041896;28;20043;-73
2022/08/23 11:20:52;;;;;;;16.25;2.95;;;24.10;62.10;;;;;;5075249;28;20305;-73
2022/08/23 11:23:53;;;;;;;8.55;2.78;;;24.10;61.30;;;;;;5075454;28;20024;-73
2022/08/23 11:26:21;;;;;;;13.68;2.90;;;24.10;61.30;;;;;;5054520;28;20024;-73
2022/08/23 11:28:50;;;;;;;10.80;2.45;;;24.00;60.40;;;;;;5054259;28;20052;-73
2022/08/23 11:31:22;;;;;;;15.30;3.20;;;24.00;60.60;;;;;;5055378;28;20400;-75
2022/08/23 11:33:59;;;;;;;12.68;3.20;;;24.00;61.80;;;;;;5055552;28;20040;-75
2022/08/23 11:36:28;;;;;;;7.97;2.53;;;24.10;61.50;;;;;;5054574;28;20393;-76
2022/08/23 11:38:54;;;;;;;8.48;2.92;;;24.10;61.20;;;;;;5054736;28;20067;-76
2022/08/23 11:41:22;;;;;;;10.27;2.25;;;24.10;60.00;;;;;;5039066;28;20052;-77
2022/08/23 11:44:12;;;;;;;9.50;2.55;;;23.90;58.20;;;;;;5059227;28;20024;-78
2022/08/23 11:46:54;;;;;;;8.13;2.45;;;23.90;59.40;;;;;;5074390;28;20020;-77
2022/08/23 11:49:29;;;;;;;10.93;2.80;;;23.90;59.70;;;;;;5074766;28;20119;-77
2022/08/23 11:52:10;;;;;;;10.38;2.45;;;24.00;59.60;;;;;;5092913;28;20101;-76
2022/08/23 11:55:06;;;;;;;8.63;2.78;;;24.00;59.40;;;;;;5092808;28;20032;-77
2022/08/23 11:57:54;;;;;;;8.18;2.38;;;24.10;59.40;;;;;;5089363;28;20039;-77
2022/08/23 12:00:41;;;;;;;13.80;2.63;;;24.10;59.70;;;;;;5074760;28;20028;-77
2022/08/23 12:03:32;;;;;;;5.95;2.30;;;24.10;59.80;;;;;;5092834;28;20373;-77
2022/08/23 12:06:33;;;;;;;11.27;2.53;;;24.10;60.10;;;;;;5073702;28;20028;-76
2022/08/23 12:09:03;;;;;;;5.93;2.20;;;24.10;60.20;;;;;;5074339;28;20028;-77
2022/08/23 12:12:20;;;;;;;8.80;2.50;;;24.10;60.30;;;;;;5074489;28;20115;-77
2022/08/23 12:14:46;;;;;;;8.20;2.40;;;24.10;61.10;;;;;;5066308;28;20044;-75
2022/08/23 12:17:11;;;;;;;10.65;2.42;;;24.20;60.70;;;;;;5073500;28;20032;-77
2022/08/23 12:19:46;;;;;;;10.57;2.40;;;24.10;60.80;;;;;;5092466;28;20135;-76
2022/08/23 12:22:20;;;;;;;8.15;2.53;;;24.20;60.70;;;;;;5091134;28;20468;-76
2022/08/23 12:24:54;;;;;;;8.18;2.47;;;24.20;60.70;;;;;;5092149;28;20553;-77
2022/08/23 12:27:31;;;;;;;8.07;2.72;;;24.20;60.60;;;;;;5091587;28;20392;-76
2022/08/23 12:30:26;;;;;;;8.55;2.53;;;24.20;60.60;;;;;;5074119;28;20032;-76
2022/08/23 12:32:56;;;;;;;10.20;2.67;;;24.20;60.70;;;;;;5073908;28;20032;-75
2022/08/23 12:35:24;;;;;;;7.78;2.25;;;24.20;60.40;;;;;;5091904;28;20020;-75
2022/08/23 12:37:50;;;;;;;7.28;2.70;;;24.20;60.50;;;;;;5073946;28;20071;-75
2022/08/23 12:40:28;;;;;;;6.85;2.40;;;24.20;60.40;;;;;;5074195;28;20064;-75
2022/08/23 12:43:07;;;;;;;9.13;2.53;;;24.20;60.50;;;;;;5091999;28;20020;-77
2022/08/23 12:45:57;;;;;;;6.70;2.55;;;24.20;60.40;;;;;;5090990;28;20032;-76
2022/08/23 12:48:29;;;;;;;8.20;2.60;;;24.30;60.00;;;;;;5062192;28;20446;-76
2022/08/23 12:51:06;;;;;;;8.43;2.90;;;24.30;60.10;;;;;;5092013;28;20032;-75
2022/08/23 12:53:39;;;;;;;8.43;2.60;;;24.30;59.90;;;;;;5092354;28;20419;-76
2022/08/23 12:56:16;;;;;;;13.48;2.80;;;24.30;59.80;;;;;;5090828;28;20172;-75
2022/08/23 12:58:50;;;;;;;6.90;2.63;;;24.30;59.40;;;;;;5074597;28;20032;-75
2022/08/23 13:01:19;;;;;;;6.20;2.60;;;24.30;59.40;;;;;;5091878;28;20465;-75
2022/08/23 13:03:50;;;;;;;6.25;2.55;;;24.30;59.80;;;;;;5057108;28;20502;-75
2022/08/23 13:06:25;;;;;;;9.77;2.63;;;24.30;59.70;;;;;;5091365;28;20060;-76
2022/08/23 13:09:03;;;;;;;9.90;2.70;;;24.30;60.20;;;;;;5073650;28;20607;-75
2022/08/23 13:11:33;;;;;;;9.23;3.15;;;24.30;60.50;;;;;;5091775;28;20024;-75
2022/08/23 13:14:00;;;;;;;7.90;2.85;;;24.30;60.80;;;;;;5091756;28;20067;-76
2022/08/23 13:16:34;;;;;;;6.63;3.10;;;24.20;59.90;;;;;;5091248;28;20020;-76
2022/08/23 13:19:26;;;;;;;18.98;10.25;;;24.20;60.00;;;;;;5091120;28;20031;-75
2022/08/23 13:22:21;;;;;;;17.83;8.70;;;24.20;60.00;;;;;;5073854;28;20031;-76
2022/08/23 13:25:10;;;;;;;12.73;8.18;;;24.20;59.30;;;;;;5091586;28;20435;-76
2022/08/23 13:27:42;;;;;;;17.25;7.82;;;24.20;59.80;;;;;;5056959;28;20032;-76
2022/08/23 13:30:08;;;;;;;17.02;6.50;;;24.30;59.70;;;;;;5073688;28;20437;-76